Airfield :
LOGIN :

Register | Disclaimer

   EN    FR    IT 

 










Legend :    VFR   Marginal VFR   IFR   Intensive IFR   Very Intensive IFR
Visi :
Ceiling :
>= 8 km
>= 3000ft
5 to 8 km
1000 to 3000 ft
1500m to 5 km
500 to 1000 ft
800 to 1500m
200 to 500 ft
< 800m
< 200 ft
Symbols :   Thunderstorms  Fog  Heavy snow  Heavy precipitations  Wind > 20 kt
SIGMETs :     Misc.  Thunderstorms  Icing  Turbulence  Mountain Waves  Volcanic Ashes







- Airport Elevation : 171 ft
- IATA code : EGC
- Download approach charts


LFBE - Bergerac

CURRENT METAR :
  • 231400Z AUTO 15003KT 110V250 9999 FEW034 SCT040 11/04 Q1010 TEMPO 4000 -SHRA SCT010 BKN025TCU

EXPIRED METARs :
  • 231330Z AUTO 16004KT 110V240 9999 SCT029 BKN058 BKN072 12/05 Q1010 TEMPO 4000 -SHRA SCT010 BKN025TCU
  • 231300Z AUTO 20005KT 140V260 9999 BKN026 BKN036 BKN049 11/05 Q1010 TEMPO 4000 -SHRA SCT010 BKN025TCU
  • 231230Z AUTO 21006KT 9999 FEW024 SCT034 BKN140 10/04 Q1010 TEMPO 4000 -SHRA SCT010 BKN025TCU
  • 231200Z AUTO 17005KT 120V230 9999 FEW019 SCT025 BKN033 09/05 Q1010 TEMPO 4000 -SHRA SCT010 BKN025TCU
  • 231130Z AUTO 20005KT 130V250 9999 SCT019 BKN030 OVC043 09/06 Q1010 TEMPO 4000 -SHRA BKN005 BKN025TCU
  • 231100Z AUTO 22006KT 190V260 9999 BKN017 BKN026 OVC034 09/05 Q1010 TEMPO 4000 -SHRA BKN005 BKN025TCU

TAF TAF LFBE
Valid from the 23 at 12:00 until the 24 at 12:00 UTC


231100Z 2312/2412 20006KT 9999 SCT013 BKN040
TEMPO 2312/2316 4000 -SHRA SCT010 BKN025TCU
BECMG 2316/2318 CAVOK
PROB40
TEMPO 2400/2406 3000 MIFG
No reported NOTAMs for that airfield.



MET'MAP, your aeronautical weather chart ! - Copyright ORBIFLY December 2007 - Disclaimer

ORBIFLY MET'MAP TEAM :

Programming & Development : Alexandra Zaïnal
Concept & Development : Baudouin d'Aumeries
Co-Development & Prog : Marc-Olivier Méhu
Technical & hardware support : Manuel Goepfert

Contact : metmap@orbifly.com




SOURCES & CREDITS :

   NOAA